sensor_id;sensor_type;location;lat;lon;timestamp;P1;durP1;ratioP1;P2;durP2;ratioP2
46363;SDS011;32071;49.036;9.344;2022-10-04T00:00:56;4.80;;;2.47;;
46363;SDS011;32071;49.036;9.344;2022-10-04T00:03:31;7.03;;;2.20;;
46363;SDS011;32071;49.036;9.344;2022-10-04T00:06:01;5.03;;;2.70;;
46363;SDS011;32071;49.036;9.344;2022-10-04T00:08:36;4.73;;;2.60;;
46363;SDS011;32071;49.036;9.344;2022-10-04T00:11:25;3.17;;;1.90;;
46363;SDS011;32071;49.036;9.344;2022-10-04T00:13:58;9.20;;;2.27;;
46363;SDS011;32071;49.036;9.344;2022-10-04T00:16:30;3.70;;;1.93;;
46363;SDS011;32071;49.036;9.344;2022-10-04T00:24:24;3.83;;;2.23;;
46363;SDS011;32071;49.036;9.344;2022-10-04T00:29:22;4.47;;;2.30;;
46363;SDS011;32071;49.036;9.344;2022-10-04T00:34:51;3.50;;;2.40;;
46363;SDS011;32071;49.036;9.344;2022-10-04T00:37:18;6.17;;;2.13;;
46363;SDS011;32071;49.036;9.344;2022-10-04T00:40:28;2.80;;;2.03;;
46363;SDS011;32071;49.036;9.344;2022-10-04T00:43:00;9.00;;;2.30;;
46363;SDS011;32071;49.036;9.344;2022-10-04T00:48:26;4.57;;;2.73;;
46363;SDS011;32071;49.036;9.344;2022-10-04T00:51:41;4.43;;;2.50;;
46363;SDS011;32071;49.036;9.344;2022-10-04T00:56:39;5.67;;;2.20;;
46363;SDS011;32071;49.036;9.344;2022-10-04T01:04:48;4.33;;;1.70;;
46363;SDS011;32071;49.036;9.344;2022-10-04T01:07:21;7.77;;;2.83;;
46363;SDS011;32071;49.036;9.344;2022-10-04T01:09:56;2.73;;;1.90;;
46363;SDS011;32071;49.036;9.344;2022-10-04T01:12:30;2.90;;;1.83;;
46363;SDS011;32071;49.036;9.344;2022-10-04T01:15:04;2.87;;;1.93;;
46363;SDS011;32071;49.036;9.344;2022-10-04T01:17:35;3.47;;;2.30;;
46363;SDS011;32071;49.036;9.344;2022-10-04T01:20:00;4.40;;;2.40;;
46363;SDS011;32071;49.036;9.344;2022-10-04T01:22:31;2.90;;;2.30;;
46363;SDS011;32071;49.036;9.344;2022-10-04T01:25:04;5.50;;;2.03;;
46363;SDS011;32071;49.036;9.344;2022-10-04T01:27:31;4.00;;;2.07;;
46363;SDS011;32071;49.036;9.344;2022-10-04T01:30:04;4.90;;;2.60;;
46363;SDS011;32071;49.036;9.344;2022-10-04T01:32:51;2.47;;;1.90;;
46363;SDS011;32071;49.036;9.344;2022-10-04T01:35:17;2.83;;;2.27;;
46363;SDS011;32071;49.036;9.344;2022-10-04T01:37:43;5.37;;;2.67;;
46363;SDS011;32071;49.036;9.344;2022-10-04T01:40:09;3.13;;;2.50;;
46363;SDS011;32071;49.036;9.344;2022-10-04T01:42:36;3.47;;;2.20;;
46363;SDS011;32071;49.036;9.344;2022-10-04T01:45:23;3.70;;;2.50;;
46363;SDS011;32071;49.036;9.344;2022-10-04T01:47:55;5.17;;;2.80;;
46363;SDS011;32071;49.036;9.344;2022-10-04T01:50:42;3.50;;;2.80;;
46363;SDS011;32071;49.036;9.344;2022-10-04T01:53:21;4.40;;;2.57;;
46363;SDS011;32071;49.036;9.344;2022-10-04T01:55:53;2.27;;;1.97;;
46363;SDS011;32071;49.036;9.344;2022-10-04T01:58:42;4.20;;;2.30;;
46363;SDS011;32071;49.036;9.344;2022-10-04T02:01:12;2.33;;;2.10;;
46363;SDS011;32071;49.036;9.344;2022-10-04T02:06:40;2.50;;;2.07;;
46363;SDS011;32071;49.036;9.344;2022-10-04T02:09:16;3.23;;;2.60;;
46363;SDS011;32071;49.036;9.344;2022-10-04T02:11:45;4.47;;;2.17;;
46363;SDS011;32071;49.036;9.344;2022-10-04T02:14:17;6.47;;;2.20;;
46363;SDS011;32071;49.036;9.344;2022-10-04T02:16:46;2.87;;;2.47;;
46363;SDS011;32071;49.036;9.344;2022-10-04T02:19:18;3.60;;;2.33;;
46363;SDS011;32071;49.036;9.344;2022-10-04T02:21:48;3.40;;;2.20;;
46363;SDS011;32071;49.036;9.344;2022-10-04T02:24:15;5.00;;;2.43;;
46363;SDS011;32071;49.036;9.344;2022-10-04T02:26:41;5.10;;;2.67;;
46363;SDS011;32071;49.036;9.344;2022-10-04T02:29:12;7.80;;;2.20;;
46363;SDS011;32071;49.036;9.344;2022-10-04T02:31:38;4.93;;;2.40;;
46363;SDS011;32071;49.036;9.344;2022-10-04T02:34:22;4.43;;;2.97;;
46363;SDS011;32071;49.036;9.344;2022-10-04T02:36:48;3.13;;;2.20;;
46363;SDS011;32071;49.036;9.344;2022-10-04T02:39:17;3.40;;;2.53;;
46363;SDS011;32071;49.036;9.344;2022-10-04T02:41:49;5.37;;;2.27;;
46363;SDS011;32071;49.036;9.344;2022-10-04T02:44:24;3.80;;;2.50;;
46363;SDS011;32071;49.036;9.344;2022-10-04T02:47:10;7.90;;;2.20;;
46363;SDS011;32071;49.036;9.344;2022-10-04T02:49:51;3.27;;;2.10;;
46363;SDS011;32071;49.036;9.344;2022-10-04T02:55:08;9.60;;;2.23;;
46363;SDS011;32071;49.036;9.344;2022-10-04T02:57:48;3.10;;;1.80;;
46363;SDS011;32071;49.036;9.344;2022-10-04T03:00:20;3.23;;;2.00;;
46363;SDS011;32071;49.036;9.344;2022-10-04T03:05:53;3.23;;;1.73;;
46363;SDS011;32071;49.036;9.344;2022-10-04T03:11:23;3.60;;;2.27;;
46363;SDS011;32071;49.036;9.344;2022-10-04T03:13:52;3.43;;;2.27;;
46363;SDS011;32071;49.036;9.344;2022-10-04T03:16:20;4.80;;;1.73;;
46363;SDS011;32071;49.036;9.344;2022-10-04T03:18:46;5.70;;;2.10;;
46363;SDS011;32071;49.036;9.344;2022-10-04T03:21:14;2.27;;;2.07;;
46363;SDS011;32071;49.036;9.344;2022-10-04T03:23:42;3.00;;;1.80;;
46363;SDS011;32071;49.036;9.344;2022-10-04T03:29:02;4.60;;;2.70;;
46363;SDS011;32071;49.036;9.344;2022-10-04T03:31:34;3.97;;;2.60;;
46363;SDS011;32071;49.036;9.344;2022-10-04T03:34:16;4.63;;;3.00;;
46363;SDS011;32071;49.036;9.344;2022-10-04T03:36:45;5.63;;;2.40;;
46363;SDS011;32071;49.036;9.344;2022-10-04T03:39:16;6.47;;;2.80;;
46363;SDS011;32071;49.036;9.344;2022-10-04T03:41:50;3.60;;;2.70;;
46363;SDS011;32071;49.036;9.344;2022-10-04T03:44:17;7.40;;;3.13;;
46363;SDS011;32071;49.036;9.344;2022-10-04T03:46:43;5.90;;;2.73;;
46363;SDS011;32071;49.036;9.344;2022-10-04T03:49:11;4.70;;;2.70;;
46363;SDS011;32071;49.036;9.344;2022-10-04T03:51:47;3.30;;;2.00;;
46363;SDS011;32071;49.036;9.344;2022-10-04T03:54:15;4.23;;;2.50;;
46363;SDS011;32071;49.036;9.344;2022-10-04T03:56:45;2.77;;;1.97;;
46363;SDS011;32071;49.036;9.344;2022-10-04T03:59:12;3.77;;;2.50;;
46363;SDS011;32071;49.036;9.344;2022-10-04T04:01:48;4.07;;;2.40;;
46363;SDS011;32071;49.036;9.344;2022-10-04T04:08:06;3.47;;;2.47;;
46363;SDS011;32071;49.036;9.344;2022-10-04T04:10:03;3.70;;;2.23;;
46363;SDS011;32071;49.036;9.344;2022-10-04T04:12:56;6.90;;;2.40;;
46363;SDS011;32071;49.036;9.344;2022-10-04T04:15:45;5.83;;;3.60;;
46363;SDS011;32071;49.036;9.344;2022-10-04T04:18:21;4.53;;;2.77;;
46363;SDS011;32071;49.036;9.344;2022-10-04T04:20:48;8.30;;;2.87;;
46363;SDS011;32071;49.036;9.344;2022-10-04T04:23:26;3.50;;;2.97;;
46363;SDS011;32071;49.036;9.344;2022-10-04T04:28:51;5.60;;;2.40;;
46363;SDS011;32071;49.036;9.344;2022-10-04T04:31:25;3.40;;;2.50;;
46363;SDS011;32071;49.036;9.344;2022-10-04T04:33:55;3.90;;;2.73;;
46363;SDS011;32071;49.036;9.344;2022-10-04T04:36:30;4.00;;;2.63;;
46363;SDS011;32071;49.036;9.344;2022-10-04T04:39:06;4.47;;;3.00;;
46363;SDS011;32071;49.036;9.344;2022-10-04T04:42:05;5.57;;;2.90;;
46363;SDS011;32071;49.036;9.344;2022-10-04T04:44:35;3.70;;;2.40;;
46363;SDS011;32071;49.036;9.344;2022-10-04T04:47:19;4.23;;;2.67;;
46363;SDS011;32071;49.036;9.344;2022-10-04T04:49:54;4.03;;;2.53;;
46363;SDS011;32071;49.036;9.344;2022-10-04T04:52:23;5.03;;;2.70;;
46363;SDS011;32071;49.036;9.344;2022-10-04T04:54:51;4.00;;;2.40;;
46363;SDS011;32071;49.036;9.344;2022-10-04T04:57:18;8.00;;;3.23;;
46363;SDS011;32071;49.036;9.344;2022-10-04T04:59:45;5.87;;;3.53;;
46363;SDS011;32071;49.036;9.344;2022-10-04T05:02:33;5.70;;;3.83;;
46363;SDS011;32071;49.036;9.344;2022-10-04T05:05:22;6.50;;;4.60;;
46363;SDS011;32071;49.036;9.344;2022-10-04T05:07:49;6.53;;;4.00;;
46363;SDS011;32071;49.036;9.344;2022-10-04T05:10:33;7.57;;;4.60;;
46363;SDS011;32071;49.036;9.344;2022-10-04T05:12:59;5.40;;;3.27;;
46363;SDS011;32071;49.036;9.344;2022-10-04T05:15:27;8.20;;;3.53;;
46363;SDS011;32071;49.036;9.344;2022-10-04T05:20:48;24.07;;;3.40;;
46363;SDS011;32071;49.036;9.344;2022-10-04T05:23:17;3.57;;;2.53;;
46363;SDS011;32071;49.036;9.344;2022-10-04T05:25:42;3.27;;;2.73;;
46363;SDS011;32071;49.036;9.344;2022-10-04T05:28:12;4.53;;;2.67;;
46363;SDS011;32071;49.036;9.344;2022-10-04T05:33:36;3.50;;;2.17;;
46363;SDS011;32071;49.036;9.344;2022-10-04T05:38:55;5.97;;;3.57;;
46363;SDS011;32071;49.036;9.344;2022-10-04T05:41:35;4.23;;;3.00;;
46363;SDS011;32071;49.036;9.344;2022-10-04T05:44:26;6.10;;;2.97;;
46363;SDS011;32071;49.036;9.344;2022-10-04T05:46:59;4.53;;;3.63;;
46363;SDS011;32071;49.036;9.344;2022-10-04T05:49:28;4.57;;;2.67;;
46363;SDS011;32071;49.036;9.344;2022-10-04T05:51:59;6.20;;;3.87;;
46363;SDS011;32071;49.036;9.344;2022-10-04T05:54:28;4.60;;;3.00;;
46363;SDS011;32071;49.036;9.344;2022-10-04T06:02:40;4.53;;;2.93;;
46363;SDS011;32071;49.036;9.344;2022-10-04T06:05:50;4.60;;;2.97;;
46363;SDS011;32071;49.036;9.344;2022-10-04T06:16:57;8.77;;;4.80;;
46363;SDS011;32071;49.036;9.344;2022-10-04T06:22:30;8.27;;;5.80;;
46363;SDS011;32071;49.036;9.344;2022-10-04T06:25:06;11.77;;;6.40;;
46363;SDS011;32071;49.036;9.344;2022-10-04T06:27:53;15.07;;;8.77;;
46363;SDS011;32071;49.036;9.344;2022-10-04T06:30:53;16.33;;;9.57;;
46363;SDS011;32071;49.036;9.344;2022-10-04T06:47:43;12.57;;;7.50;;
46363;SDS011;32071;49.036;9.344;2022-10-04T06:50:54;11.73;;;7.20;;
46363;SDS011;32071;49.036;9.344;2022-10-04T06:59:04;10.77;;;6.37;;
46363;SDS011;32071;49.036;9.344;2022-10-04T07:01:36;10.77;;;6.63;;
46363;SDS011;32071;49.036;9.344;2022-10-04T07:04:19;10.03;;;6.23;;
46363;SDS011;32071;49.036;9.344;2022-10-04T07:15:51;6.78;;;5.28;;
46363;SDS011;32071;49.036;9.344;2022-10-04T07:18:26;7.60;;;4.10;;
46363;SDS011;32071;49.036;9.344;2022-10-04T07:21:04;6.27;;;4.27;;
46363;SDS011;32071;49.036;9.344;2022-10-04T07:23:56;4.27;;;3.80;;
46363;SDS011;32071;49.036;9.344;2022-10-04T07:26:36;5.57;;;4.00;;
46363;SDS011;32071;49.036;9.344;2022-10-04T07:29:05;7.27;;;3.40;;
46363;SDS011;32071;49.036;9.344;2022-10-04T07:31:50;6.50;;;4.40;;
46363;SDS011;32071;49.036;9.344;2022-10-04T07:34:36;5.37;;;3.83;;
46363;SDS011;32071;49.036;9.344;2022-10-04T07:37:14;8.50;;;5.10;;
46363;SDS011;32071;49.036;9.344;2022-10-04T07:42:46;7.03;;;5.17;;
46363;SDS011;32071;49.036;9.344;2022-10-04T07:47:47;7.30;;;6.10;;
46363;SDS011;32071;49.036;9.344;2022-10-04T07:53:41;10.83;;;6.90;;
46363;SDS011;32071;49.036;9.344;2022-10-04T07:56:25;13.33;;;8.80;;
46363;SDS011;32071;49.036;9.344;2022-10-04T07:59:15;16.27;;;10.87;;
46363;SDS011;32071;49.036;9.344;2022-10-04T08:01:53;16.93;;;10.87;;
46363;SDS011;32071;49.036;9.344;2022-10-04T08:09:58;12.07;;;6.73;;
46363;SDS011;32071;49.036;9.344;2022-10-04T08:15:28;7.13;;;5.97;;
46363;SDS011;32071;49.036;9.344;2022-10-04T08:21:08;11.90;;;7.87;;
46363;SDS011;32071;49.036;9.344;2022-10-04T08:26:35;8.43;;;6.57;;
46363;SDS011;32071;49.036;9.344;2022-10-04T08:29:26;7.50;;;5.37;;
46363;SDS011;32071;49.036;9.344;2022-10-04T08:32:24;9.23;;;5.90;;
46363;SDS011;32071;49.036;9.344;2022-10-04T08:40:41;8.90;;;5.90;;
46363;SDS011;32071;49.036;9.344;2022-10-04T08:46:11;7.33;;;5.27;;
46363;SDS011;32071;49.036;9.344;2022-10-04T08:55:10;6.63;;;5.50;;
46363;SDS011;32071;49.036;9.344;2022-10-04T08:58:00;6.23;;;5.10;;
46363;SDS011;32071;49.036;9.344;2022-10-04T09:03:56;10.70;;;4.90;;
46363;SDS011;32071;49.036;9.344;2022-10-04T09:34:04;7.37;;;2.40;;
46363;SDS011;32071;49.036;9.344;2022-10-04T09:36:55;5.80;;;2.40;;
46363;SDS011;32071;49.036;9.344;2022-10-04T09:44:50;3.77;;;2.50;;
46363;SDS011;32071;49.036;9.344;2022-10-04T09:55:59;3.07;;;2.33;;
46363;SDS011;32071;49.036;9.344;2022-10-04T09:58:57;3.50;;;3.03;;
46363;SDS011;32071;49.036;9.344;2022-10-04T10:04:28;5.00;;;3.10;;
46363;SDS011;32071;49.036;9.344;2022-10-04T10:10:16;3.10;;;2.80;;
46363;SDS011;32071;49.036;9.344;2022-10-04T10:30:47;5.80;;;2.80;;
46363;SDS011;32071;49.036;9.344;2022-10-04T10:44:39;5.30;;;2.87;;
46363;SDS011;32071;49.036;9.344;2022-10-04T10:55:54;4.67;;;2.80;;
46363;SDS011;32071;49.036;9.344;2022-10-04T11:30:23;7.60;;;2.63;;
46363;SDS011;32071;49.036;9.344;2022-10-04T11:35:38;2.90;;;2.70;;
46363;SDS011;32071;49.036;9.344;2022-10-04T11:38:41;4.33;;;2.97;;
46363;SDS011;32071;49.036;9.344;2022-10-04T11:41:30;4.50;;;2.70;;
46363;SDS011;32071;49.036;9.344;2022-10-04T11:46:56;5.00;;;2.10;;
46363;SDS011;32071;49.036;9.344;2022-10-04T11:52:41;3.73;;;2.77;;
46363;SDS011;32071;49.036;9.344;2022-10-04T11:58:46;4.80;;;2.80;;
46363;SDS011;32071;49.036;9.344;2022-10-04T12:09:18;3.23;;;2.60;;
46363;SDS011;32071;49.036;9.344;2022-10-04T12:12:26;3.23;;;2.70;;
46363;SDS011;32071;49.036;9.344;2022-10-04T12:47:49;3.63;;;2.53;;
46363;SDS011;32071;49.036;9.344;2022-10-04T12:58:16;2.53;;;2.30;;
46363;SDS011;32071;49.036;9.344;2022-10-04T13:00:55;2.93;;;2.20;;
46363;SDS011;32071;49.036;9.344;2022-10-04T13:03:31;3.90;;;2.40;;
46363;SDS011;32071;49.036;9.344;2022-10-04T13:09:06;6.33;;;2.70;;
46363;SDS011;32071;49.036;9.344;2022-10-04T13:34:15;3.00;;;2.80;;
46363;SDS011;32071;49.036;9.344;2022-10-04T13:48:16;4.63;;;2.73;;
46363;SDS011;32071;49.036;9.344;2022-10-04T13:57:27;2.77;;;2.57;;
46363;SDS011;32071;49.036;9.344;2022-10-04T14:02:28;3.93;;;2.30;;
46363;SDS011;32071;49.036;9.344;2022-10-04T14:19:07;1.93;;;1.67;;
46363;SDS011;32071;49.036;9.344;2022-10-04T14:27:49;2.10;;;2.00;;
46363;SDS011;32071;49.036;9.344;2022-10-04T14:36:48;2.33;;;2.10;;
46363;SDS011;32071;49.036;9.344;2022-10-04T14:42:39;2.20;;;2.00;;
46363;SDS011;32071;49.036;9.344;2022-10-04T14:54:39;2.17;;;1.90;;
46363;SDS011;32071;49.036;9.344;2022-10-04T14:59:58;3.53;;;2.10;;
46363;SDS011;32071;49.036;9.344;2022-10-04T15:03:18;2.20;;;2.00;;
46363;SDS011;32071;49.036;9.344;2022-10-04T15:08:27;1.87;;;1.77;;
46363;SDS011;32071;49.036;9.344;2022-10-04T15:11:13;3.90;;;2.13;;
46363;SDS011;32071;49.036;9.344;2022-10-04T15:13:52;3.53;;;2.10;;
46363;SDS011;32071;49.036;9.344;2022-10-04T15:16:30;2.40;;;2.20;;
46363;SDS011;32071;49.036;9.344;2022-10-04T15:19:08;2.13;;;1.93;;
46363;SDS011;32071;49.036;9.344;2022-10-04T15:24:26;1.77;;;1.63;;
46363;SDS011;32071;49.036;9.344;2022-10-04T15:30:10;2.57;;;2.37;;
46363;SDS011;32071;49.036;9.344;2022-10-04T15:38:38;2.10;;;2.00;;
46363;SDS011;32071;49.036;9.344;2022-10-04T15:57:50;2.27;;;1.90;;
46363;SDS011;32071;49.036;9.344;2022-10-04T16:00:25;3.30;;;1.97;;
46363;SDS011;32071;49.036;9.344;2022-10-04T16:12:53;10.03;;;2.30;;
46363;SDS011;32071;49.036;9.344;2022-10-04T16:15:15;3.17;;;2.50;;
46363;SDS011;32071;49.036;9.344;2022-10-04T16:26:02;3.47;;;1.87;;
46363;SDS011;32071;49.036;9.344;2022-10-04T16:28:46;1.80;;;1.70;;
46363;SDS011;32071;49.036;9.344;2022-10-04T16:31:36;2.20;;;2.00;;
46363;SDS011;32071;49.036;9.344;2022-10-04T16:34:16;2.27;;;2.07;;
46363;SDS011;32071;49.036;9.344;2022-10-04T16:47:52;5.13;;;2.13;;
46363;SDS011;32071;49.036;9.344;2022-10-04T16:53:29;3.73;;;2.40;;
46363;SDS011;32071;49.036;9.344;2022-10-04T16:56:29;5.07;;;2.27;;
46363;SDS011;32071;49.036;9.344;2022-10-04T16:59:02;2.47;;;2.07;;
46363;SDS011;32071;49.036;9.344;2022-10-04T17:06:59;2.70;;;1.97;;
46363;SDS011;32071;49.036;9.344;2022-10-04T17:12:41;3.60;;;2.40;;
46363;SDS011;32071;49.036;9.344;2022-10-04T17:28:55;3.57;;;2.57;;
46363;SDS011;32071;49.036;9.344;2022-10-04T17:45:11;3.60;;;2.73;;
46363;SDS011;32071;49.036;9.344;2022-10-04T17:47:40;4.00;;;3.10;;
46363;SDS011;32071;49.036;9.344;2022-10-04T17:50:51;4.03;;;2.43;;
46363;SDS011;32071;49.036;9.344;2022-10-04T17:53:39;3.73;;;2.20;;
46363;SDS011;32071;49.036;9.344;2022-10-04T17:56:35;5.00;;;2.90;;
46363;SDS011;32071;49.036;9.344;2022-10-04T17:59:09;3.77;;;2.77;;
46363;SDS011;32071;49.036;9.344;2022-10-04T18:01:41;2.60;;;2.27;;
46363;SDS011;32071;49.036;9.344;2022-10-04T18:04:22;5.70;;;2.60;;
46363;SDS011;32071;49.036;9.344;2022-10-04T18:07:13;3.30;;;2.63;;
46363;SDS011;32071;49.036;9.344;2022-10-04T18:09:49;3.20;;;2.70;;
46363;SDS011;32071;49.036;9.344;2022-10-04T18:12:28;9.40;;;2.70;;
46363;SDS011;32071;49.036;9.344;2022-10-04T18:17:44;5.43;;;2.80;;
46363;SDS011;32071;49.036;9.344;2022-10-04T18:23:02;5.60;;;3.00;;
46363;SDS011;32071;49.036;9.344;2022-10-04T18:25:38;3.17;;;2.73;;
46363;SDS011;32071;49.036;9.344;2022-10-04T18:30:34;4.97;;;3.33;;
46363;SDS011;32071;49.036;9.344;2022-10-04T18:33:30;4.77;;;3.30;;
46363;SDS011;32071;49.036;9.344;2022-10-04T18:38:44;6.47;;;2.70;;
46363;SDS011;32071;49.036;9.344;2022-10-04T18:41:24;4.37;;;2.77;;
46363;SDS011;32071;49.036;9.344;2022-10-04T18:44:13;4.73;;;3.47;;
46363;SDS011;32071;49.036;9.344;2022-10-04T18:46:41;6.03;;;3.07;;
46363;SDS011;32071;49.036;9.344;2022-10-04T18:51:43;3.63;;;3.30;;
46363;SDS011;32071;49.036;9.344;2022-10-04T18:57:41;4.77;;;3.50;;
46363;SDS011;32071;49.036;9.344;2022-10-04T19:00:32;3.73;;;3.30;;
46363;SDS011;32071;49.036;9.344;2022-10-04T19:03:38;7.30;;;3.83;;
46363;SDS011;32071;49.036;9.344;2022-10-04T19:06:10;3.43;;;3.00;;
46363;SDS011;32071;49.036;9.344;2022-10-04T19:17:33;4.10;;;3.57;;
46363;SDS011;32071;49.036;9.344;2022-10-04T19:23:07;4.13;;;3.10;;
46363;SDS011;32071;49.036;9.344;2022-10-04T19:26:04;4.10;;;3.40;;
46363;SDS011;32071;49.036;9.344;2022-10-04T19:28:43;9.50;;;3.60;;
46363;SDS011;32071;49.036;9.344;2022-10-04T19:31:22;5.37;;;3.20;;
46363;SDS011;32071;49.036;9.344;2022-10-04T19:33:59;4.87;;;3.80;;
46363;SDS011;32071;49.036;9.344;2022-10-04T20:01:36;5.73;;;3.83;;
46363;SDS011;32071;49.036;9.344;2022-10-04T20:03:55;7.80;;;3.77;;
46363;SDS011;32071;49.036;9.344;2022-10-04T20:06:47;5.10;;;3.50;;
46363;SDS011;32071;49.036;9.344;2022-10-04T20:12:02;9.30;;;4.27;;
46363;SDS011;32071;49.036;9.344;2022-10-04T20:21:51;7.60;;;3.67;;
46363;SDS011;32071;49.036;9.344;2022-10-04T20:27:04;7.47;;;3.90;;
46363;SDS011;32071;49.036;9.344;2022-10-04T20:34:51;4.33;;;3.27;;
46363;SDS011;32071;49.036;9.344;2022-10-04T20:37:18;5.17;;;4.17;;
46363;SDS011;32071;49.036;9.344;2022-10-04T20:47:38;4.30;;;3.43;;
46363;SDS011;32071;49.036;9.344;2022-10-04T20:50:15;4.80;;;3.47;;
46363;SDS011;32071;49.036;9.344;2022-10-04T20:52:45;5.63;;;3.63;;
46363;SDS011;32071;49.036;9.344;2022-10-04T20:55:27;7.27;;;3.77;;
46363;SDS011;32071;49.036;9.344;2022-10-04T20:57:58;7.10;;;3.90;;
46363;SDS011;32071;49.036;9.344;2022-10-04T21:00:29;4.80;;;4.00;;
46363;SDS011;32071;49.036;9.344;2022-10-04T21:06:07;5.60;;;3.67;;
46363;SDS011;32071;49.036;9.344;2022-10-04T21:08:35;5.50;;;3.70;;
46363;SDS011;32071;49.036;9.344;2022-10-04T21:11:08;3.83;;;3.27;;
46363;SDS011;32071;49.036;9.344;2022-10-04T21:16:35;6.30;;;4.07;;
46363;SDS011;32071;49.036;9.344;2022-10-04T21:21:56;6.77;;;4.10;;
46363;SDS011;32071;49.036;9.344;2022-10-04T21:27:02;5.60;;;3.43;;
46363;SDS011;32071;49.036;9.344;2022-10-04T21:29:30;5.23;;;4.03;;
46363;SDS011;32071;49.036;9.344;2022-10-04T21:31:56;5.20;;;3.97;;
46363;SDS011;32071;49.036;9.344;2022-10-04T21:34:25;4.70;;;4.07;;
46363;SDS011;32071;49.036;9.344;2022-10-04T21:36:51;6.30;;;3.37;;
46363;SDS011;32071;49.036;9.344;2022-10-04T21:39:17;7.00;;;4.10;;
46363;SDS011;32071;49.036;9.344;2022-10-04T21:41:43;6.70;;;3.80;;
46363;SDS011;32071;49.036;9.344;2022-10-04T21:44:09;3.67;;;3.07;;
46363;SDS011;32071;49.036;9.344;2022-10-04T21:46:34;4.40;;;3.87;;
46363;SDS011;32071;49.036;9.344;2022-10-04T21:49:01;3.80;;;3.30;;
46363;SDS011;32071;49.036;9.344;2022-10-04T21:51:27;4.73;;;4.10;;
46363;SDS011;32071;49.036;9.344;2022-10-04T21:53:56;5.23;;;3.70;;
46363;SDS011;32071;49.036;9.344;2022-10-04T21:56:22;6.33;;;3.90;;
46363;SDS011;32071;49.036;9.344;2022-10-04T21:58:48;4.60;;;3.83;;
46363;SDS011;32071;49.036;9.344;2022-10-04T22:01:14;6.70;;;3.93;;
46363;SDS011;32071;49.036;9.344;2022-10-04T22:03:40;5.60;;;3.70;;
46363;SDS011;32071;49.036;9.344;2022-10-04T22:06:05;6.90;;;3.60;;
46363;SDS011;32071;49.036;9.344;2022-10-04T22:08:31;10.00;;;4.43;;
46363;SDS011;32071;49.036;9.344;2022-10-04T22:10:56;5.40;;;3.10;;
46363;SDS011;32071;49.036;9.344;2022-10-04T22:13:22;5.27;;;3.73;;
46363;SDS011;32071;49.036;9.344;2022-10-04T22:15:48;4.90;;;3.60;;
46363;SDS011;32071;49.036;9.344;2022-10-04T22:18:13;5.83;;;4.40;;
46363;SDS011;32071;49.036;9.344;2022-10-04T22:20:39;5.47;;;3.60;;
46363;SDS011;32071;49.036;9.344;2022-10-04T22:23:09;5.37;;;3.53;;
46363;SDS011;32071;49.036;9.344;2022-10-04T22:25:39;5.90;;;3.37;;
46363;SDS011;32071;49.036;9.344;2022-10-04T22:28:48;4.60;;;3.93;;
46363;SDS011;32071;49.036;9.344;2022-10-04T22:30:54;6.70;;;3.60;;
46363;SDS011;32071;49.036;9.344;2022-10-04T22:35:49;6.53;;;4.20;;
46363;SDS011;32071;49.036;9.344;2022-10-04T22:38:15;11.23;;;3.90;;
46363;SDS011;32071;49.036;9.344;2022-10-04T22:40:40;6.10;;;4.00;;
46363;SDS011;32071;49.036;9.344;2022-10-04T22:43:09;8.57;;;4.07;;
46363;SDS011;32071;49.036;9.344;2022-10-04T22:45:38;6.40;;;3.37;;
46363;SDS011;32071;49.036;9.344;2022-10-04T22:48:09;4.10;;;3.57;;
46363;SDS011;32071;49.036;9.344;2022-10-04T22:50:38;6.33;;;3.60;;
46363;SDS011;32071;49.036;9.344;2022-10-04T22:53:15;5.93;;;4.13;;
46363;SDS011;32071;49.036;9.344;2022-10-04T22:55:43;5.93;;;3.47;;
46363;SDS011;32071;49.036;9.344;2022-10-04T22:58:14;6.10;;;4.60;;
46363;SDS011;32071;49.036;9.344;2022-10-04T23:00:41;4.63;;;3.83;;
46363;SDS011;32071;49.036;9.344;2022-10-04T23:03:30;7.33;;;4.10;;
46363;SDS011;32071;49.036;9.344;2022-10-04T23:05:58;4.57;;;3.27;;
46363;SDS011;32071;49.036;9.344;2022-10-04T23:08:24;15.07;;;3.90;;
46363;SDS011;32071;49.036;9.344;2022-10-04T23:10:53;5.43;;;3.80;;
46363;SDS011;32071;49.036;9.344;2022-10-04T23:13:21;3.77;;;3.20;;
46363;SDS011;32071;49.036;9.344;2022-10-04T23:15:47;5.97;;;4.53;;
46363;SDS011;32071;49.036;9.344;2022-10-04T23:18:13;3.90;;;3.50;;
46363;SDS011;32071;49.036;9.344;2022-10-04T23:20:40;6.63;;;4.37;;
46363;SDS011;32071;49.036;9.344;2022-10-04T23:23:10;9.40;;;3.80;;
46363;SDS011;32071;49.036;9.344;2022-10-04T23:25:45;6.53;;;4.60;;
46363;SDS011;32071;49.036;9.344;2022-10-04T23:28:12;6.07;;;4.30;;
46363;SDS011;32071;49.036;9.344;2022-10-04T23:30:40;10.63;;;3.60;;
46363;SDS011;32071;49.036;9.344;2022-10-04T23:33:15;4.27;;;3.77;;
46363;SDS011;32071;49.036;9.344;2022-10-04T23:35:43;5.00;;;4.13;;
46363;SDS011;32071;49.036;9.344;2022-10-04T23:38:13;6.23;;;4.33;;
46363;SDS011;32071;49.036;9.344;2022-10-04T23:40:41;5.17;;;4.10;;
46363;SDS011;32071;49.036;9.344;2022-10-04T23:43:11;5.40;;;3.67;;
46363;SDS011;32071;49.036;9.344;2022-10-04T23:45:56;6.10;;;3.83;;
46363;SDS011;32071;49.036;9.344;2022-10-04T23:48:26;3.73;;;3.07;;
46363;SDS011;32071;49.036;9.344;2022-10-04T23:50:54;7.23;;;4.30;;
46363;SDS011;32071;49.036;9.344;2022-10-04T23:53:22;12.23;;;4.37;;
46363;SDS011;32071;49.036;9.344;2022-10-04T23:55:51;7.43;;;4.60;;
46363;SDS011;32071;49.036;9.344;2022-10-04T23:58:22;5.43;;;3.87;;
